sensor_id;sensor_type;location;lat;lon;timestamp;P1;durP1;ratioP1;P2;durP2;ratioP2
37997;SDS011;24079;51.824;4.682;2022-08-18T00:01:06;16.98;;;11.35;;
37997;SDS011;24079;51.824;4.682;2022-08-18T00:03:33;14.82;;;10.48;;
37997;SDS011;24079;51.824;4.682;2022-08-18T00:05:58;17.33;;;10.90;;
37997;SDS011;24079;51.824;4.682;2022-08-18T00:08:24;18.42;;;10.80;;
37997;SDS011;24079;51.824;4.682;2022-08-18T00:10:53;16.25;;;10.85;;
37997;SDS011;24079;51.824;4.682;2022-08-18T00:13:19;16.45;;;9.60;;
37997;SDS011;24079;51.824;4.682;2022-08-18T00:15:45;15.43;;;10.73;;
37997;SDS011;24079;51.824;4.682;2022-08-18T00:18:11;14.70;;;9.75;;
37997;SDS011;24079;51.824;4.682;2022-08-18T00:20:36;14.35;;;9.57;;
37997;SDS011;24079;51.824;4.682;2022-08-18T00:23:04;14.80;;;9.15;;
37997;SDS011;24079;51.824;4.682;2022-08-18T00:25:29;13.75;;;9.30;;
37997;SDS011;24079;51.824;4.682;2022-08-18T00:27:55;15.35;;;10.30;;
37997;SDS011;24079;51.824;4.682;2022-08-18T00:30:21;15.82;;;9.52;;
37997;SDS011;24079;51.824;4.682;2022-08-18T00:32:49;14.18;;;9.70;;
37997;SDS011;24079;51.824;4.682;2022-08-18T00:35:19;16.67;;;10.40;;
37997;SDS011;24079;51.824;4.682;2022-08-18T00:37:47;17.50;;;10.95;;
37997;SDS011;24079;51.824;4.682;2022-08-18T00:40:17;16.88;;;10.20;;
37997;SDS011;24079;51.824;4.682;2022-08-18T00:42:48;17.13;;;10.77;;
37997;SDS011;24079;51.824;4.682;2022-08-18T00:45:19;17.05;;;10.05;;
37997;SDS011;24079;51.824;4.682;2022-08-18T00:47:49;14.80;;;10.27;;
37997;SDS011;24079;51.824;4.682;2022-08-18T00:50:18;14.88;;;9.90;;
37997;SDS011;24079;51.824;4.682;2022-08-18T00:53:08;17.15;;;11.27;;
37997;SDS011;24079;51.824;4.682;2022-08-18T00:55:42;18.98;;;11.23;;
37997;SDS011;24079;51.824;4.682;2022-08-18T00:58:13;18.83;;;12.50;;
37997;SDS011;24079;51.824;4.682;2022-08-18T01:00:46;19.27;;;12.27;;
37997;SDS011;24079;51.824;4.682;2022-08-18T01:03:15;16.10;;;11.90;;
37997;SDS011;24079;51.824;4.682;2022-08-18T01:05:44;24.52;;;13.95;;
37997;SDS011;24079;51.824;4.682;2022-08-18T01:08:15;17.27;;;13.40;;
37997;SDS011;24079;51.824;4.682;2022-08-18T01:10:41;21.77;;;14.07;;
37997;SDS011;24079;51.824;4.682;2022-08-18T01:13:07;21.52;;;14.43;;
37997;SDS011;24079;51.824;4.682;2022-08-18T01:15:33;20.02;;;14.43;;
37997;SDS011;24079;51.824;4.682;2022-08-18T01:18:00;19.10;;;14.65;;
37997;SDS011;24079;51.824;4.682;2022-08-18T01:23:42;19.67;;;14.93;;
37997;SDS011;24079;51.824;4.682;2022-08-18T01:26:09;22.27;;;16.05;;
37997;SDS011;24079;51.824;4.682;2022-08-18T01:28:36;23.80;;;15.98;;
37997;SDS011;24079;51.824;4.682;2022-08-18T01:31:04;25.10;;;16.08;;
37997;SDS011;24079;51.824;4.682;2022-08-18T01:33:32;24.40;;;17.58;;
37997;SDS011;24079;51.824;4.682;2022-08-18T01:36:10;24.33;;;17.05;;
37997;SDS011;24079;51.824;4.682;2022-08-18T01:38:40;25.67;;;17.60;;
37997;SDS011;24079;51.824;4.682;2022-08-18T01:41:10;24.02;;;17.00;;
37997;SDS011;24079;51.824;4.682;2022-08-18T01:43:36;23.77;;;17.70;;
37997;SDS011;24079;51.824;4.682;2022-08-18T01:46:02;29.02;;;17.40;;
37997;SDS011;24079;51.824;4.682;2022-08-18T01:48:38;23.77;;;18.00;;
37997;SDS011;24079;51.824;4.682;2022-08-18T01:51:08;23.80;;;17.60;;
37997;SDS011;24079;51.824;4.682;2022-08-18T01:53:35;22.48;;;16.38;;
37997;SDS011;24079;51.824;4.682;2022-08-18T01:56:02;26.15;;;17.80;;
37997;SDS011;24079;51.824;4.682;2022-08-18T01:58:33;21.63;;;17.52;;
37997;SDS011;24079;51.824;4.682;2022-08-18T02:01:00;21.95;;;17.65;;
37997;SDS011;24079;51.824;4.682;2022-08-18T02:03:31;20.17;;;15.63;;
37997;SDS011;24079;51.824;4.682;2022-08-18T02:06:03;22.42;;;16.88;;
37997;SDS011;24079;51.824;4.682;2022-08-18T02:08:32;24.75;;;18.20;;
37997;SDS011;24079;51.824;4.682;2022-08-18T02:10:57;24.73;;;17.83;;
37997;SDS011;24079;51.824;4.682;2022-08-18T02:13:24;26.38;;;19.25;;
37997;SDS011;24079;51.824;4.682;2022-08-18T02:15:50;26.08;;;18.92;;
37997;SDS011;24079;51.824;4.682;2022-08-18T02:18:17;21.92;;;17.33;;
37997;SDS011;24079;51.824;4.682;2022-08-18T02:20:44;23.25;;;18.25;;
37997;SDS011;24079;51.824;4.682;2022-08-18T02:23:11;28.95;;;18.55;;
37997;SDS011;24079;51.824;4.682;2022-08-18T02:25:37;29.58;;;18.63;;
37997;SDS011;24079;51.824;4.682;2022-08-18T02:28:04;33.20;;;18.88;;
37997;SDS011;24079;51.824;4.682;2022-08-18T02:30:30;26.23;;;18.48;;
37997;SDS011;24079;51.824;4.682;2022-08-18T02:32:57;25.02;;;19.88;;
37997;SDS011;24079;51.824;4.682;2022-08-18T02:35:23;26.92;;;17.98;;
37997;SDS011;24079;51.824;4.682;2022-08-18T02:37:49;24.58;;;19.20;;
37997;SDS011;24079;51.824;4.682;2022-08-18T02:40:15;22.10;;;18.48;;
37997;SDS011;24079;51.824;4.682;2022-08-18T02:42:42;25.10;;;18.90;;
37997;SDS011;24079;51.824;4.682;2022-08-18T02:45:08;30.08;;;20.35;;
37997;SDS011;24079;51.824;4.682;2022-08-18T02:47:35;29.90;;;20.33;;
37997;SDS011;24079;51.824;4.682;2022-08-18T02:50:00;30.08;;;20.05;;
37997;SDS011;24079;51.824;4.682;2022-08-18T02:52:26;30.75;;;20.75;;
37997;SDS011;24079;51.824;4.682;2022-08-18T02:54:58;32.13;;;23.23;;
37997;SDS011;24079;51.824;4.682;2022-08-18T02:57:27;32.63;;;23.58;;
37997;SDS011;24079;51.824;4.682;2022-08-18T02:59:54;36.28;;;25.65;;
37997;SDS011;24079;51.824;4.682;2022-08-18T03:02:19;35.03;;;24.23;;
37997;SDS011;24079;51.824;4.682;2022-08-18T03:04:46;36.75;;;25.95;;
37997;SDS011;24079;51.824;4.682;2022-08-18T03:07:12;37.17;;;26.73;;
37997;SDS011;24079;51.824;4.682;2022-08-18T03:09:39;33.08;;;23.92;;
37997;SDS011;24079;51.824;4.682;2022-08-18T03:12:05;29.92;;;23.95;;
37997;SDS011;24079;51.824;4.682;2022-08-18T03:14:32;41.40;;;26.45;;
37997;SDS011;24079;51.824;4.682;2022-08-18T03:17:00;38.35;;;26.73;;
37997;SDS011;24079;51.824;4.682;2022-08-18T03:19:29;36.42;;;25.05;;
37997;SDS011;24079;51.824;4.682;2022-08-18T03:21:56;36.47;;;28.48;;
37997;SDS011;24079;51.824;4.682;2022-08-18T03:24:23;34.97;;;27.65;;
37997;SDS011;24079;51.824;4.682;2022-08-18T03:26:49;32.83;;;26.48;;
37997;SDS011;24079;51.824;4.682;2022-08-18T03:29:16;33.85;;;27.10;;
37997;SDS011;24079;51.824;4.682;2022-08-18T03:31:42;36.85;;;28.38;;
37997;SDS011;24079;51.824;4.682;2022-08-18T03:34:09;40.83;;;28.42;;
37997;SDS011;24079;51.824;4.682;2022-08-18T03:36:35;40.78;;;28.92;;
37997;SDS011;24079;51.824;4.682;2022-08-18T03:39:05;41.65;;;27.35;;
37997;SDS011;24079;51.824;4.682;2022-08-18T03:41:33;39.85;;;27.45;;
37997;SDS011;24079;51.824;4.682;2022-08-18T03:44:01;38.00;;;26.13;;
37997;SDS011;24079;51.824;4.682;2022-08-18T03:46:27;41.95;;;27.58;;
37997;SDS011;24079;51.824;4.682;2022-08-18T03:48:55;36.58;;;26.83;;
37997;SDS011;24079;51.824;4.682;2022-08-18T03:51:23;31.67;;;25.45;;
37997;SDS011;24079;51.824;4.682;2022-08-18T03:53:54;36.13;;;25.13;;
37997;SDS011;24079;51.824;4.682;2022-08-18T03:56:25;31.80;;;22.77;;
37997;SDS011;24079;51.824;4.682;2022-08-18T03:58:54;30.63;;;22.17;;
37997;SDS011;24079;51.824;4.682;2022-08-18T04:01:23;32.10;;;20.48;;
37997;SDS011;24079;51.824;4.682;2022-08-18T04:03:52;31.50;;;19.65;;
37997;SDS011;24079;51.824;4.682;2022-08-18T04:06:25;26.60;;;19.73;;
37997;SDS011;24079;51.824;4.682;2022-08-18T04:08:54;28.55;;;19.30;;
37997;SDS011;24079;51.824;4.682;2022-08-18T04:11:22;32.75;;;19.55;;
37997;SDS011;24079;51.824;4.682;2022-08-18T04:13:48;28.33;;;18.13;;
37997;SDS011;24079;51.824;4.682;2022-08-18T04:16:14;27.02;;;17.90;;
37997;SDS011;24079;51.824;4.682;2022-08-18T04:18:40;22.50;;;18.25;;
37997;SDS011;24079;51.824;4.682;2022-08-18T04:21:06;26.40;;;17.27;;
37997;SDS011;24079;51.824;4.682;2022-08-18T04:23:34;31.45;;;18.60;;
37997;SDS011;24079;51.824;4.682;2022-08-18T04:26:04;27.13;;;17.65;;
37997;SDS011;24079;51.824;4.682;2022-08-18T04:28:32;28.48;;;17.92;;
37997;SDS011;24079;51.824;4.682;2022-08-18T04:30:58;30.17;;;17.80;;
37997;SDS011;24079;51.824;4.682;2022-08-18T04:33:29;23.27;;;17.87;;
37997;SDS011;24079;51.824;4.682;2022-08-18T04:35:55;25.45;;;15.73;;
37997;SDS011;24079;51.824;4.682;2022-08-18T04:38:21;25.42;;;17.98;;
37997;SDS011;24079;51.824;4.682;2022-08-18T04:40:47;20.25;;;15.48;;
37997;SDS011;24079;51.824;4.682;2022-08-18T04:43:13;26.08;;;16.60;;
37997;SDS011;24079;51.824;4.682;2022-08-18T04:45:45;22.40;;;16.95;;
37997;SDS011;24079;51.824;4.682;2022-08-18T04:48:11;22.35;;;15.38;;
37997;SDS011;24079;51.824;4.682;2022-08-18T04:50:37;23.83;;;15.40;;
37997;SDS011;24079;51.824;4.682;2022-08-18T04:53:04;26.95;;;16.38;;
37997;SDS011;24079;51.824;4.682;2022-08-18T04:55:48;22.92;;;15.45;;
37997;SDS011;24079;51.824;4.682;2022-08-18T04:58:22;23.27;;;15.70;;
37997;SDS011;24079;51.824;4.682;2022-08-18T05:00:55;23.15;;;16.23;;
37997;SDS011;24079;51.824;4.682;2022-08-18T05:03:25;27.23;;;15.95;;
37997;SDS011;24079;51.824;4.682;2022-08-18T05:05:52;22.45;;;15.13;;
37997;SDS011;24079;51.824;4.682;2022-08-18T05:08:19;22.92;;;15.57;;
37997;SDS011;24079;51.824;4.682;2022-08-18T05:10:46;24.10;;;15.23;;
37997;SDS011;24079;51.824;4.682;2022-08-18T05:13:12;20.27;;;14.57;;
37997;SDS011;24079;51.824;4.682;2022-08-18T05:15:41;23.40;;;14.63;;
37997;SDS011;24079;51.824;4.682;2022-08-18T05:18:08;20.67;;;15.20;;
37997;SDS011;24079;51.824;4.682;2022-08-18T05:20:35;20.13;;;14.52;;
37997;SDS011;24079;51.824;4.682;2022-08-18T05:23:01;20.25;;;13.80;;
37997;SDS011;24079;51.824;4.682;2022-08-18T05:25:27;20.48;;;14.05;;
37997;SDS011;24079;51.824;4.682;2022-08-18T05:27:53;17.65;;;13.27;;
37997;SDS011;24079;51.824;4.682;2022-08-18T05:30:19;20.45;;;14.52;;
37997;SDS011;24079;51.824;4.682;2022-08-18T05:32:45;16.83;;;12.05;;
37997;SDS011;24079;51.824;4.682;2022-08-18T05:35:16;21.75;;;14.18;;
37997;SDS011;24079;51.824;4.682;2022-08-18T05:40:32;20.13;;;13.98;;
37997;SDS011;24079;51.824;4.682;2022-08-18T05:42:59;21.10;;;14.85;;
37997;SDS011;24079;51.824;4.682;2022-08-18T05:45:26;22.10;;;15.40;;
37997;SDS011;24079;51.824;4.682;2022-08-18T05:47:55;27.05;;;16.38;;
37997;SDS011;24079;51.824;4.682;2022-08-18T05:50:24;20.13;;;14.27;;
37997;SDS011;24079;51.824;4.682;2022-08-18T05:52:53;24.90;;;16.48;;
37997;SDS011;24079;51.824;4.682;2022-08-18T05:58:18;18.45;;;13.05;;
37997;SDS011;24079;51.824;4.682;2022-08-18T06:00:51;14.90;;;11.52;;
37997;SDS011;24079;51.824;4.682;2022-08-18T06:03:21;15.00;;;10.45;;
37997;SDS011;24079;51.824;4.682;2022-08-18T06:05:52;14.43;;;10.48;;
37997;SDS011;24079;51.824;4.682;2022-08-18T06:08:23;17.42;;;10.50;;
37997;SDS011;24079;51.824;4.682;2022-08-18T06:10:53;18.67;;;10.38;;
37997;SDS011;24079;51.824;4.682;2022-08-18T06:13:18;14.57;;;10.40;;
37997;SDS011;24079;51.824;4.682;2022-08-18T06:18:36;13.77;;;8.05;;
37997;SDS011;24079;51.824;4.682;2022-08-18T06:26:12;11.60;;;8.05;;
37997;SDS011;24079;51.824;4.682;2022-08-18T06:39:48;12.93;;;7.93;;
37997;SDS011;24079;51.824;4.682;2022-08-18T06:42:18;12.48;;;8.00;;
37997;SDS011;24079;51.824;4.682;2022-08-18T06:44:51;11.88;;;8.05;;
37997;SDS011;24079;51.824;4.682;2022-08-18T06:52:58;11.23;;;7.57;;
37997;SDS011;24079;51.824;4.682;2022-08-18T06:58:04;11.68;;;7.82;;
37997;SDS011;24079;51.824;4.682;2022-08-18T07:03:23;10.60;;;5.82;;
37997;SDS011;24079;51.824;4.682;2022-08-18T07:06:29;10.70;;;6.32;;
37997;SDS011;24079;51.824;4.682;2022-08-18T07:09:16;11.68;;;6.63;;
37997;SDS011;24079;51.824;4.682;2022-08-18T07:11:56;11.65;;;6.32;;
37997;SDS011;24079;51.824;4.682;2022-08-18T07:14:31;10.07;;;6.97;;
37997;SDS011;24079;51.824;4.682;2022-08-18T07:17:10;11.90;;;6.68;;
37997;SDS011;24079;51.824;4.682;2022-08-18T07:19:38;10.80;;;6.30;;
37997;SDS011;24079;51.824;4.682;2022-08-18T07:24:40;12.43;;;7.72;;
37997;SDS011;24079;51.824;4.682;2022-08-18T07:27:15;11.10;;;7.05;;
37997;SDS011;24079;51.824;4.682;2022-08-18T07:30:04;12.48;;;7.13;;
37997;SDS011;24079;51.824;4.682;2022-08-18T07:35:17;13.38;;;7.07;;
37997;SDS011;24079;51.824;4.682;2022-08-18T07:40:34;11.40;;;6.25;;
37997;SDS011;24079;51.824;4.682;2022-08-18T07:43:24;13.70;;;6.20;;
37997;SDS011;24079;51.824;4.682;2022-08-18T07:46:02;10.40;;;6.80;;
37997;SDS011;24079;51.824;4.682;2022-08-18T07:48:34;7.50;;;5.10;;
37997;SDS011;24079;51.824;4.682;2022-08-18T07:56:37;7.03;;;5.50;;
37997;SDS011;24079;51.824;4.682;2022-08-18T08:07:00;7.78;;;3.47;;
37997;SDS011;24079;51.824;4.682;2022-08-18T08:14:41;5.88;;;3.65;;
37997;SDS011;24079;51.824;4.682;2022-08-18T08:17:21;6.78;;;3.80;;
37997;SDS011;24079;51.824;4.682;2022-08-18T08:28:25;7.28;;;3.72;;
37997;SDS011;24079;51.824;4.682;2022-08-18T08:31:35;7.53;;;3.30;;
37997;SDS011;24079;51.824;4.682;2022-08-18T08:34:16;6.15;;;3.20;;
37997;SDS011;24079;51.824;4.682;2022-08-18T08:36:53;7.68;;;3.10;;
37997;SDS011;24079;51.824;4.682;2022-08-18T08:39:35;6.75;;;3.42;;
37997;SDS011;24079;51.824;4.682;2022-08-18T08:44:46;6.10;;;3.00;;
37997;SDS011;24079;51.824;4.682;2022-08-18T08:47:20;4.53;;;2.92;;
37997;SDS011;24079;51.824;4.682;2022-08-18T08:49:58;8.25;;;3.30;;
37997;SDS011;24079;51.824;4.682;2022-08-18T08:52:43;6.35;;;3.28;;
37997;SDS011;24079;51.824;4.682;2022-08-18T08:55:37;5.25;;;3.60;;
37997;SDS011;24079;51.824;4.682;2022-08-18T08:58:25;8.48;;;3.30;;
37997;SDS011;24079;51.824;4.682;2022-08-18T09:01:08;9.77;;;3.22;;
37997;SDS011;24079;51.824;4.682;2022-08-18T09:03:44;5.45;;;2.95;;
37997;SDS011;24079;51.824;4.682;2022-08-18T09:09:44;4.32;;;3.05;;
37997;SDS011;24079;51.824;4.682;2022-08-18T09:12:43;4.05;;;3.10;;
37997;SDS011;24079;51.824;4.682;2022-08-18T09:17:59;5.63;;;2.78;;
37997;SDS011;24079;51.824;4.682;2022-08-18T09:23:17;4.13;;;3.20;;
37997;SDS011;24079;51.824;4.682;2022-08-18T09:25:50;5.07;;;3.00;;
37997;SDS011;24079;51.824;4.682;2022-08-18T09:42:15;3.42;;;3.13;;
37997;SDS011;24079;51.824;4.682;2022-08-18T09:44:55;5.18;;;3.78;;
37997;SDS011;24079;51.824;4.682;2022-08-18T09:49:54;6.78;;;3.05;;
37997;SDS011;24079;51.824;4.682;2022-08-18T09:57:22;4.95;;;3.17;;
37997;SDS011;24079;51.824;4.682;2022-08-18T10:05:20;6.80;;;3.08;;
37997;SDS011;24079;51.824;4.682;2022-08-18T10:16:05;7.00;;;3.30;;
37997;SDS011;24079;51.824;4.682;2022-08-18T10:18:51;5.50;;;2.67;;
37997;SDS011;24079;51.824;4.682;2022-08-18T10:24:20;6.65;;;3.30;;
37997;SDS011;24079;51.824;4.682;2022-08-18T10:42:05;8.02;;;3.55;;
37997;SDS011;24079;51.824;4.682;2022-08-18T10:44:47;5.55;;;4.15;;
37997;SDS011;24079;51.824;4.682;2022-08-18T10:47:19;8.70;;;3.60;;
37997;SDS011;24079;51.824;4.682;2022-08-18T10:49:48;9.18;;;3.40;;
37997;SDS011;24079;51.824;4.682;2022-08-18T10:52:18;4.82;;;2.90;;
37997;SDS011;24079;51.824;4.682;2022-08-18T11:00:17;3.35;;;2.28;;
37997;SDS011;24079;51.824;4.682;2022-08-18T11:05:40;6.32;;;2.97;;
37997;SDS011;24079;51.824;4.682;2022-08-18T11:08:08;3.17;;;2.25;;
37997;SDS011;24079;51.824;4.682;2022-08-18T11:10:42;5.20;;;2.40;;
37997;SDS011;24079;51.824;4.682;2022-08-18T11:19:09;5.15;;;2.00;;
37997;SDS011;24079;51.824;4.682;2022-08-18T11:21:41;3.85;;;2.28;;
37997;SDS011;24079;51.824;4.682;2022-08-18T11:24:17;6.55;;;2.67;;
37997;SDS011;24079;51.824;4.682;2022-08-18T11:31:48;5.07;;;2.38;;
37997;SDS011;24079;51.824;4.682;2022-08-18T11:34:18;4.43;;;1.90;;
37997;SDS011;24079;51.824;4.682;2022-08-18T11:36:58;2.90;;;2.20;;
37997;SDS011;24079;51.824;4.682;2022-08-18T11:39:26;3.25;;;2.30;;
37997;SDS011;24079;51.824;4.682;2022-08-18T11:41:52;3.33;;;2.67;;
37997;SDS011;24079;51.824;4.682;2022-08-18T11:44:21;7.18;;;2.70;;
37997;SDS011;24079;51.824;4.682;2022-08-18T11:46:49;5.60;;;2.30;;
37997;SDS011;24079;51.824;4.682;2022-08-18T11:49:31;4.15;;;2.50;;
37997;SDS011;24079;51.824;4.682;2022-08-18T11:52:02;3.22;;;2.20;;
37997;SDS011;24079;51.824;4.682;2022-08-18T11:54:48;3.80;;;2.40;;
37997;SDS011;24079;51.824;4.682;2022-08-18T11:57:28;5.10;;;2.50;;
37997;SDS011;24079;51.824;4.682;2022-08-18T12:03:43;6.57;;;2.53;;
37997;SDS011;24079;51.824;4.682;2022-08-18T12:05:57;6.25;;;2.63;;
37997;SDS011;24079;51.824;4.682;2022-08-18T12:08:35;3.42;;;2.63;;
37997;SDS011;24079;51.824;4.682;2022-08-18T12:11:17;10.70;;;3.28;;
37997;SDS011;24079;51.824;4.682;2022-08-18T12:13:47;3.58;;;2.97;;
37997;SDS011;24079;51.824;4.682;2022-08-18T12:19:02;4.60;;;2.78;;
37997;SDS011;24079;51.824;4.682;2022-08-18T12:21:29;7.93;;;3.70;;
37997;SDS011;24079;51.824;4.682;2022-08-18T12:23:55;5.13;;;2.42;;
37997;SDS011;24079;51.824;4.682;2022-08-18T12:26:21;2.60;;;2.13;;
37997;SDS011;24079;51.824;4.682;2022-08-18T12:28:46;3.47;;;2.50;;
37997;SDS011;24079;51.824;4.682;2022-08-18T12:31:12;5.80;;;2.83;;
37997;SDS011;24079;51.824;4.682;2022-08-18T12:33:38;3.50;;;2.60;;
37997;SDS011;24079;51.824;4.682;2022-08-18T12:36:04;4.03;;;2.20;;
37997;SDS011;24079;51.824;4.682;2022-08-18T12:38:30;3.00;;;2.35;;
37997;SDS011;24079;51.824;4.682;2022-08-18T12:40:56;5.03;;;2.53;;
37997;SDS011;24079;51.824;4.682;2022-08-18T12:43:23;6.43;;;3.10;;
37997;SDS011;24079;51.824;4.682;2022-08-18T12:45:48;8.32;;;2.97;;
37997;SDS011;24079;51.824;4.682;2022-08-18T12:48:14;5.35;;;2.75;;
37997;SDS011;24079;51.824;4.682;2022-08-18T12:50:40;4.10;;;2.50;;
37997;SDS011;24079;51.824;4.682;2022-08-18T12:53:07;4.32;;;2.53;;
37997;SDS011;24079;51.824;4.682;2022-08-18T12:55:35;5.45;;;2.95;;
37997;SDS011;24079;51.824;4.682;2022-08-18T12:58:04;4.90;;;2.90;;
37997;SDS011;24079;51.824;4.682;2022-08-18T13:00:30;4.32;;;1.90;;
37997;SDS011;24079;51.824;4.682;2022-08-18T13:02:56;4.25;;;2.40;;
37997;SDS011;24079;51.824;4.682;2022-08-18T13:05:23;4.07;;;2.63;;
37997;SDS011;24079;51.824;4.682;2022-08-18T13:07:49;2.72;;;2.10;;
37997;SDS011;24079;51.824;4.682;2022-08-18T13:10:15;5.53;;;3.00;;
37997;SDS011;24079;51.824;4.682;2022-08-18T13:12:41;5.45;;;2.45;;
37997;SDS011;24079;51.824;4.682;2022-08-18T13:15:07;4.32;;;2.70;;
37997;SDS011;24079;51.824;4.682;2022-08-18T13:17:34;5.28;;;2.22;;
37997;SDS011;24079;51.824;4.682;2022-08-18T13:20:03;3.25;;;2.03;;
37997;SDS011;24079;51.824;4.682;2022-08-18T13:22:31;2.63;;;1.90;;
37997;SDS011;24079;51.824;4.682;2022-08-18T13:24:57;3.50;;;1.65;;
37997;SDS011;24079;51.824;4.682;2022-08-18T13:27:23;4.22;;;2.60;;
37997;SDS011;24079;51.824;4.682;2022-08-18T13:29:48;7.85;;;2.58;;
37997;SDS011;24079;51.824;4.682;2022-08-18T13:32:14;9.38;;;2.50;;
37997;SDS011;24079;51.824;4.682;2022-08-18T13:34:40;3.70;;;2.70;;
37997;SDS011;24079;51.824;4.682;2022-08-18T13:37:05;3.90;;;2.47;;
37997;SDS011;24079;51.824;4.682;2022-08-18T13:39:31;3.53;;;2.65;;
37997;SDS011;24079;51.824;4.682;2022-08-18T13:41:56;5.82;;;2.53;;
37997;SDS011;24079;51.824;4.682;2022-08-18T13:44:22;3.95;;;2.85;;
37997;SDS011;24079;51.824;4.682;2022-08-18T13:46:48;4.15;;;3.33;;
37997;SDS011;24079;51.824;4.682;2022-08-18T13:49:17;6.72;;;3.05;;
37997;SDS011;24079;51.824;4.682;2022-08-18T13:51:44;3.60;;;2.75;;
37997;SDS011;24079;51.824;4.682;2022-08-18T13:54:15;4.93;;;2.63;;
37997;SDS011;24079;51.824;4.682;2022-08-18T13:56:45;4.60;;;2.92;;
37997;SDS011;24079;51.824;4.682;2022-08-18T13:59:10;4.13;;;2.55;;
37997;SDS011;24079;51.824;4.682;2022-08-18T14:01:37;4.65;;;2.85;;
37997;SDS011;24079;51.824;4.682;2022-08-18T14:04:02;5.93;;;3.50;;
37997;SDS011;24079;51.824;4.682;2022-08-18T14:06:28;5.07;;;2.70;;
37997;SDS011;24079;51.824;4.682;2022-08-18T14:08:54;4.38;;;2.72;;
37997;SDS011;24079;51.824;4.682;2022-08-18T14:11:21;4.00;;;2.85;;
37997;SDS011;24079;51.824;4.682;2022-08-18T14:13:53;3.28;;;2.30;;
37997;SDS011;24079;51.824;4.682;2022-08-18T14:16:19;4.93;;;2.67;;
37997;SDS011;24079;51.824;4.682;2022-08-18T14:18:46;2.97;;;2.33;;
37997;SDS011;24079;51.824;4.682;2022-08-18T14:21:32;3.58;;;2.83;;
37997;SDS011;24079;51.824;4.682;2022-08-18T14:24:27;3.90;;;2.47;;
37997;SDS011;24079;51.824;4.682;2022-08-18T14:27:12;7.22;;;3.85;;
37997;SDS011;24079;51.824;4.682;2022-08-18T14:29:38;10.55;;;4.72;;
37997;SDS011;24079;51.824;4.682;2022-08-18T14:32:06;6.32;;;4.93;;
37997;SDS011;24079;51.824;4.682;2022-08-18T14:34:32;11.10;;;4.63;;
37997;SDS011;24079;51.824;4.682;2022-08-18T14:36:58;8.95;;;5.38;;
37997;SDS011;24079;51.824;4.682;2022-08-18T14:39:24;52.15;;;11.15;;
37997;SDS011;24079;51.824;4.682;2022-08-18T14:41:49;28.33;;;10.55;;
37997;SDS011;24079;51.824;4.682;2022-08-18T14:44:15;19.92;;;7.22;;
37997;SDS011;24079;51.824;4.682;2022-08-18T14:46:41;11.60;;;7.03;;
37997;SDS011;24079;51.824;4.682;2022-08-18T14:49:11;18.80;;;8.45;;
37997;SDS011;24079;51.824;4.682;2022-08-18T14:51:37;13.68;;;8.68;;
37997;SDS011;24079;51.824;4.682;2022-08-18T14:54:07;13.15;;;8.73;;
37997;SDS011;24079;51.824;4.682;2022-08-18T14:56:35;10.88;;;8.05;;
37997;SDS011;24079;51.824;4.682;2022-08-18T14:59:02;9.48;;;6.72;;
37997;SDS011;24079;51.824;4.682;2022-08-18T15:01:31;8.38;;;7.05;;
37997;SDS011;24079;51.824;4.682;2022-08-18T15:03:58;11.88;;;8.35;;
37997;SDS011;24079;51.824;4.682;2022-08-18T15:06:24;9.15;;;7.20;;
37997;SDS011;24079;51.824;4.682;2022-08-18T15:08:49;9.75;;;6.07;;
37997;SDS011;24079;51.824;4.682;2022-08-18T15:11:15;8.13;;;6.30;;
37997;SDS011;24079;51.824;4.682;2022-08-18T15:13:41;9.00;;;6.72;;
37997;SDS011;24079;51.824;4.682;2022-08-18T15:16:08;11.77;;;7.05;;
37997;SDS011;24079;51.824;4.682;2022-08-18T15:18:37;7.35;;;6.18;;
37997;SDS011;24079;51.824;4.682;2022-08-18T15:21:04;7.85;;;5.50;;
37997;SDS011;24079;51.824;4.682;2022-08-18T15:23:48;9.20;;;6.68;;
37997;SDS011;24079;51.824;4.682;2022-08-18T15:26:32;6.82;;;5.68;;
37997;SDS011;24079;51.824;4.682;2022-08-18T15:28:58;6.35;;;4.95;;
37997;SDS011;24079;51.824;4.682;2022-08-18T15:31:24;6.18;;;5.03;;
37997;SDS011;24079;51.824;4.682;2022-08-18T15:33:51;7.00;;;4.30;;
37997;SDS011;24079;51.824;4.682;2022-08-18T15:36:18;7.07;;;5.07;;
37997;SDS011;24079;51.824;4.682;2022-08-18T15:38:45;7.05;;;5.28;;
37997;SDS011;24079;51.824;4.682;2022-08-18T15:41:25;10.27;;;4.90;;
37997;SDS011;24079;51.824;4.682;2022-08-18T15:44:03;8.38;;;4.45;;
37997;SDS011;24079;51.824;4.682;2022-08-18T15:46:30;11.20;;;4.10;;
37997;SDS011;24079;51.824;4.682;2022-08-18T15:48:58;7.18;;;3.83;;
37997;SDS011;24079;51.824;4.682;2022-08-18T15:51:24;8.00;;;3.20;;
37997;SDS011;24079;51.824;4.682;2022-08-18T15:53:50;13.00;;;3.25;;
37997;SDS011;24079;51.824;4.682;2022-08-18T15:56:17;11.30;;;3.42;;
37997;SDS011;24079;51.824;4.682;2022-08-18T15:58:45;7.47;;;3.40;;
37997;SDS011;24079;51.824;4.682;2022-08-18T16:01:11;10.27;;;4.07;;
37997;SDS011;24079;51.824;4.682;2022-08-18T16:03:38;5.57;;;3.00;;
37997;SDS011;24079;51.824;4.682;2022-08-18T16:06:04;10.75;;;3.80;;
37997;SDS011;24079;51.824;4.682;2022-08-18T16:08:31;12.23;;;3.92;;
37997;SDS011;24079;51.824;4.682;2022-08-18T16:10:59;11.15;;;3.60;;
37997;SDS011;24079;51.824;4.682;2022-08-18T16:13:31;10.15;;;3.70;;
37997;SDS011;24079;51.824;4.682;2022-08-18T16:15:57;10.95;;;3.80;;
37997;SDS011;24079;51.824;4.682;2022-08-18T16:18:22;10.05;;;3.95;;
37997;SDS011;24079;51.824;4.682;2022-08-18T16:20:48;8.25;;;3.40;;
37997;SDS011;24079;51.824;4.682;2022-08-18T16:23:14;10.70;;;3.72;;
37997;SDS011;24079;51.824;4.682;2022-08-18T16:25:40;8.38;;;3.50;;
37997;SDS011;24079;51.824;4.682;2022-08-18T16:28:06;14.25;;;3.47;;
37997;SDS011;24079;51.824;4.682;2022-08-18T16:30:33;10.68;;;4.05;;
37997;SDS011;24079;51.824;4.682;2022-08-18T16:32:59;17.88;;;4.22;;
37997;SDS011;24079;51.824;4.682;2022-08-18T16:35:27;8.10;;;3.38;;
37997;SDS011;24079;51.824;4.682;2022-08-18T16:37:54;9.13;;;3.67;;
37997;SDS011;24079;51.824;4.682;2022-08-18T16:40:19;8.32;;;4.15;;
37997;SDS011;24079;51.824;4.682;2022-08-18T16:42:45;5.55;;;3.03;;
37997;SDS011;24079;51.824;4.682;2022-08-18T16:45:12;12.77;;;4.20;;
37997;SDS011;24079;51.824;4.682;2022-08-18T16:47:39;7.28;;;4.13;;
37997;SDS011;24079;51.824;4.682;2022-08-18T16:50:06;22.27;;;12.00;;
37997;SDS011;24079;51.824;4.682;2022-08-18T16:52:33;12.40;;;3.88;;
37997;SDS011;24079;51.824;4.682;2022-08-18T16:54:59;10.23;;;3.88;;
37997;SDS011;24079;51.824;4.682;2022-08-18T16:57:25;8.60;;;3.15;;
37997;SDS011;24079;51.824;4.682;2022-08-18T17:00:09;6.70;;;3.15;;
37997;SDS011;24079;51.824;4.682;2022-08-18T17:02:53;12.60;;;3.75;;
37997;SDS011;24079;51.824;4.682;2022-08-18T17:05:37;10.60;;;3.70;;
37997;SDS011;24079;51.824;4.682;2022-08-18T17:08:03;14.25;;;4.63;;
37997;SDS011;24079;51.824;4.682;2022-08-18T17:10:29;11.23;;;4.55;;
37997;SDS011;24079;51.824;4.682;2022-08-18T17:13:01;8.57;;;3.38;;
37997;SDS011;24079;51.824;4.682;2022-08-18T17:15:31;7.82;;;3.72;;
37997;SDS011;24079;51.824;4.682;2022-08-18T17:17:56;8.48;;;3.88;;
37997;SDS011;24079;51.824;4.682;2022-08-18T17:20:22;5.93;;;3.95;;
37997;SDS011;24079;51.824;4.682;2022-08-18T17:22:48;12.05;;;5.28;;
37997;SDS011;24079;51.824;4.682;2022-08-18T17:25:15;17.48;;;5.82;;
37997;SDS011;24079;51.824;4.682;2022-08-18T17:27:45;20.27;;;11.70;;
37997;SDS011;24079;51.824;4.682;2022-08-18T17:30:14;37.33;;;22.45;;
37997;SDS011;24079;51.824;4.682;2022-08-18T17:32:52;16.13;;;6.63;;
37997;SDS011;24079;51.824;4.682;2022-08-18T17:35:40;8.20;;;4.10;;